Time;durP1;ratioP1;P1;durP2;ratioP2;P2;SDS_P1;SDS_P2;PMS_P1;PMS_P2;Temp;Humidity;BMP_temperature;BMP_pressure;BME280_temperature;BME280_humidity;BME280_pressure;Samples;Min_cycle;Max_cycle;Signal;HPM_P1;HPM_P2
2022/10/02 00:02:26;;;;;;;;;;;;;;;25.01;44.89;94778.03;5059665;28;7131;-60
2022/10/02 00:05:02;;;;;;;;;;;;;;;25.01;45.42;94777.28;5077691;28;7389;-60
2022/10/02 00:07:38;;;;;;;;;;;;;;;25.02;45.52;94765.00;5046331;28;9983;-60
2022/10/02 00:10:45;;;;;;;;;;;;;;;25.01;44.89;94760.78;5065711;28;7086;-60
2022/10/02 00:13:19;;;;;;;;;;;;;;;25.00;45.33;94767.53;5067020;28;9049;-60
2022/10/02 00:15:51;;;;;;;;;;;;;;;24.99;45.52;94761.25;5047642;28;7377;-60
2022/10/02 00:18:27;;;;;;;;;;;;;;;24.97;45.39;94774.03;5050458;28;6982;-59
2022/10/02 00:21:13;;;;;;;;;;;;;;;25.00;44.79;94781.28;5057230;28;7003;-60
2022/10/02 00:24:25;;;;;;;;;;;;;;;24.99;44.90;94783.28;5059312;28;7379;-60
2022/10/02 00:27:27;;;;;;;;;;;;;;;25.00;45.49;94781.28;4993844;28;9457;-60
2022/10/02 00:30:17;;;;;;;;;;;;;;;24.98;44.79;94781.78;5001154;28;7544;-60
2022/10/02 00:33:30;;;;;;;;;;;;;;;25.00;45.38;94776.53;4993023;28;9759;-60
2022/10/02 00:36:29;;;;;;;;;;;;;;;24.99;45.06;94788.78;4993300;28;7224;-59
2022/10/02 00:39:32;;;;;;;;;;;;;;;24.97;45.74;94790.53;4978563;28;9037;-60
2022/10/02 00:42:23;;;;;;;;;;;;;;;24.96;45.19;94789.03;4992383;28;7600;-59
2022/10/02 00:45:29;;;;;;;;;;;;;;;24.98;45.72;94794.78;4998999;28;7262;-60
2022/10/02 00:48:33;;;;;;;;;;;;;;;24.96;45.14;94784.28;4992724;28;6999;-60
2022/10/02 00:51:34;;;;;;;;;;;;;;;24.96;44.97;94803.53;4990993;28;7258;-59
2022/10/02 00:54:18;;;;;;;;;;;;;;;24.97;44.94;94807.06;4985177;28;8950;-60
2022/10/02 00:57:10;;;;;;;;;;;;;;;24.97;45.55;94801.56;4989979;28;8995;-60
2022/10/02 01:00:21;;;;;;;;;;;;;;;24.95;44.75;94798.53;4988755;28;7355;-60
2022/10/02 01:03:27;;;;;;;;;;;;;;;24.95;45.14;94810.28;4963599;28;7275;-60
2022/10/02 01:05:55;;;;;;;;;;;;;;;24.94;45.76;94814.31;4985093;28;7325;-60
2022/10/02 01:08:27;;;;;;;;;;;;;;;24.95;45.22;94821.28;4987934;28;7371;-60
2022/10/02 01:10:53;;;;;;;;;;;;;;;24.94;45.02;94808.78;4997172;28;7091;-60
2022/10/02 01:13:22;;;;;;;;;;;;;;;24.93;44.86;94817.53;4992187;28;7033;-60
2022/10/02 01:15:55;;;;;;;;;;;;;;;24.93;45.69;94812.03;4988842;28;7791;-60
2022/10/02 01:18:30;;;;;;;;;;;;;;;24.93;44.81;94817.53;4976463;28;7310;-60
2022/10/02 01:21:18;;;;;;;;;;;;;;;24.94;45.21;94810.78;4976495;28;7290;-60
2022/10/02 01:24:04;;;;;;;;;;;;;;;24.93;44.95;94807.28;4986412;28;7238;-60
2022/10/02 01:26:32;;;;;;;;;;;;;;;24.94;45.41;94816.28;5000363;28;8806;-60
2022/10/02 01:29:06;;;;;;;;;;;;;;;24.93;45.04;94812.78;4972930;28;9420;-60
2022/10/02 01:31:34;;;;;;;;;;;;;;;24.91;45.61;94812.53;4978373;28;7590;-60
2022/10/02 01:34:04;;;;;;;;;;;;;;;24.90;45.17;94808.28;4984448;28;7240;-59
2022/10/02 01:36:31;;;;;;;;;;;;;;;24.93;45.69;94806.53;4990647;28;7243;-60
2022/10/02 01:38:58;;;;;;;;;;;;;;;24.94;45.83;94816.28;5019662;28;8405;-60
2022/10/02 01:41:26;;;;;;;;;;;;;;;24.92;45.04;94814.03;5074143;28;7271;-60
2022/10/02 01:44:00;;;;;;;;;;;;;;;24.91;45.51;94817.28;5056882;28;7087;-60
2022/10/02 01:47:10;;;;;;;;;;;;;;;24.92;44.92;94821.53;5063905;28;7259;-60
2022/10/02 01:49:58;;;;;;;;;;;;;;;24.92;45.53;94821.53;5054593;28;9152;-60
2022/10/02 01:52:40;;;;;;;;;;;;;;;24.94;44.77;94824.53;5014902;28;8799;-60
2022/10/02 01:55:26;;;;;;;;;;;;;;;24.91;44.82;94820.03;5029513;28;9020;-60
2022/10/02 01:58:26;;;;;;;;;;;;;;;24.92;45.08;94818.78;5039839;28;7132;-60
2022/10/02 02:01:13;;;;;;;;;;;;;;;24.92;45.24;94805.03;5005667;28;6917;-60
2022/10/02 02:04:02;;;;;;;;;;;;;;;24.92;45.69;94799.53;5030225;28;7343;-60
2022/10/02 02:07:05;;;;;;;;;;;;;;;24.90;45.00;94802.03;5025646;28;9017;-60
2022/10/02 02:09:38;;;;;;;;;;;;;;;24.89;44.78;94809.53;5026489;28;9149;-60
2022/10/02 02:12:44;;;;;;;;;;;;;;;24.90;45.28;94821.28;5024296;28;7327;-60
2022/10/02 02:15:22;;;;;;;;;;;;;;;24.90;44.96;94816.53;4959699;28;7205;-59
2022/10/02 02:17:58;;;;;;;;;;;;;;;24.90;45.47;94818.53;4972757;28;7669;-60
2022/10/02 02:20:33;;;;;;;;;;;;;;;24.88;44.51;94818.28;4963018;28;9022;-60
2022/10/02 02:23:24;;;;;;;;;;;;;;;24.87;45.17;94814.00;4954944;28;7676;-60
2022/10/02 02:25:57;;;;;;;;;;;;;;;24.86;45.53;94818.03;4971810;28;8131;-60
2022/10/02 02:28:31;;;;;;;;;;;;;;;24.84;44.97;94817.78;4978767;28;7242;-59
2022/10/02 02:31:04;;;;;;;;;;;;;;;24.83;44.99;94803.25;5003205;28;7995;-60
2022/10/02 02:33:45;;;;;;;;;;;;;;;24.83;45.24;94802.50;4996843;28;7279;-60
2022/10/02 02:36:27;;;;;;;;;;;;;;;24.83;45.77;94794.25;5023433;28;8254;-60
2022/10/02 02:39:46;;;;;;;;;;;;;;;24.85;45.19;94800.00;4982158;28;7212;-60
2022/10/02 02:42:16;;;;;;;;;;;;;;;24.84;45.01;94785.50;4935367;28;9384;-60
2022/10/02 02:45:09;;;;;;;;;;;;;;;24.90;44.62;94791.03;4946475;28;7128;-60
2022/10/02 02:47:47;;;;;;;;;;;;;;;24.86;45.41;94780.25;4950037;28;6995;-60
2022/10/02 02:50:21;;;;;;;;;;;;;;;24.88;44.91;94779.75;4970933;28;9585;-60
2022/10/02 02:53:19;;;;;;;;;;;;;;;24.87;44.92;94770.75;4960536;28;7401;-60
2022/10/02 02:55:52;;;;;;;;;;;;;;;24.87;45.09;94770.00;4914852;29;7130;-60
2022/10/02 02:59:08;;;;;;;;;;;;;;;24.85;44.99;94769.75;4904033;29;7625;-60
2022/10/02 03:01:36;;;;;;;;;;;;;;;24.83;44.96;94763.97;4868325;29;9208;-59
2022/10/02 03:04:34;;;;;;;;;;;;;;;24.81;45.58;94772.75;4870051;29;7829;-59
2022/10/02 03:07:16;;;;;;;;;;;;;;;24.84;45.32;94765.50;4825096;29;7218;-59
2022/10/02 03:10:40;;;;;;;;;;;;;;;24.84;44.90;94762.75;4831692;29;9469;-60
2022/10/02 03:13:26;;;;;;;;;;;;;;;24.83;45.77;94769.50;4838053;29;8540;-59
2022/10/02 03:16:17;;;;;;;;;;;;;;;24.84;45.26;94765.50;5121035;27;6639;-58
2022/10/02 03:19:22;;;;;;;;;;;;;;;24.84;45.18;94771.00;5082420;28;7207;-58
2022/10/02 03:22:01;;;;;;;;;;;;;;;24.82;44.67;94767.97;5020646;28;7337;-58
2022/10/02 03:24:48;;;;;;;;;;;;;;;24.83;45.56;94775.75;5044853;28;8477;-58
2022/10/02 03:27:25;;;;;;;;;;;;;;;24.84;44.77;94782.00;5045314;28;7224;-58
2022/10/02 03:29:53;;;;;;;;;;;;;;;24.82;44.97;94781.72;5021471;28;7223;-58
2022/10/02 03:32:34;;;;;;;;;;;;;;;24.81;44.78;94778.25;5041364;28;7294;-58
2022/10/02 03:35:17;;;;;;;;;;;;;;;24.83;44.86;94773.00;5013542;28;7111;-58
2022/10/02 03:38:02;;;;;;;;;;;;;;;24.81;45.63;94774.75;5023663;28;9102;-58
2022/10/02 03:40:30;;;;;;;;;;;;;;;24.81;45.01;94767.25;5026103;28;8831;-58
2022/10/02 03:42:58;;;;;;;;;;;;;;;24.80;45.02;94778.72;5039662;28;7015;-58
2022/10/02 03:45:26;;;;;;;;;;;;;;;24.81;45.50;94769.22;5009457;28;7139;-58
2022/10/02 03:48:03;;;;;;;;;;;;;;;24.82;45.45;94778.97;5021813;28;7230;-58
2022/10/02 03:50:49;;;;;;;;;;;;;;;24.81;45.38;94778.25;5015451;28;10049;-58
2022/10/02 03:53:21;;;;;;;;;;;;;;;24.82;45.13;94781.72;5025521;28;7825;-59
2022/10/02 03:56:37;;;;;;;;;;;;;;;24.81;45.66;94780.22;5004523;28;9096;-58
2022/10/02 03:59:44;;;;;;;;;;;;;;;24.79;44.92;94769.75;4985714;28;6971;-58
2022/10/02 04:02:25;;;;;;;;;;;;;;;24.81;45.35;94763.72;4993039;28;9450;-59
2022/10/02 04:08:17;;;;;;;;;;;;;;;24.82;45.04;94773.47;4996197;28;8451;-58
2022/10/02 04:11:00;;;;;;;;;;;;;;;24.81;45.69;94777.47;4967331;28;7495;-58
2022/10/02 04:14:06;;;;;;;;;;;;;;;24.79;44.95;94775.25;4971537;28;7080;-59
2022/10/02 04:16:51;;;;;;;;;;;;;;;24.79;45.18;94777.22;4974865;28;7443;-58
2022/10/02 04:19:30;;;;;;;;;;;;;;;24.79;45.44;94777.22;4985442;28;7480;-57
2022/10/02 04:22:27;;;;;;;;;;;;;;;24.80;45.27;94779.47;4967883;28;9084;-58
2022/10/02 04:25:04;;;;;;;;;;;;;;;24.80;45.00;94771.22;4967364;28;9408;-59
2022/10/02 04:27:38;;;;;;;;;;;;;;;24.80;45.83;94775.97;4953939;28;7198;-58
2022/10/02 04:30:19;;;;;;;;;;;;;;;24.81;45.63;94774.75;4956448;28;7587;-58
2022/10/02 04:33:25;;;;;;;;;;;;;;;24.80;45.67;94770.47;4962327;28;7266;-58
2022/10/02 04:36:36;;;;;;;;;;;;;;;24.78;44.96;94764.72;5055909;28;9090;-58
2022/10/02 04:39:35;;;;;;;;;;;;;;;24.78;45.05;94759.22;4993304;28;7866;-58
2022/10/02 04:42:23;;;;;;;;;;;;;;;24.79;45.55;94755.22;4992950;28;7495;-58
2022/10/02 04:45:18;;;;;;;;;;;;;;;24.78;44.73;94757.22;4984714;28;7585;-58
2022/10/02 04:48:19;;;;;;;;;;;;;;;24.78;45.15;94756.47;4985946;28;8630;-58
2022/10/02 04:51:04;;;;;;;;;;;;;;;24.78;45.66;94757.22;4980438;28;7562;-58
2022/10/02 04:53:57;;;;;;;;;;;;;;;24.80;44.79;94753.97;4989491;28;9014;-59
2022/10/02 04:56:26;;;;;;;;;;;;;;;24.79;45.02;94757.97;4988003;28;8238;-58
2022/10/02 04:59:14;;;;;;;;;;;;;;;24.77;44.77;94750.22;4982769;28;7220;-59
2022/10/02 05:01:57;;;;;;;;;;;;;;;24.76;45.08;94748.72;4990679;28;9386;-58
2022/10/02 05:04:43;;;;;;;;;;;;;;;24.77;45.35;94746.72;4993140;28;10496;-58
2022/10/02 05:07:18;;;;;;;;;;;;;;;24.77;44.59;94755.72;4981153;28;8586;-59
2022/10/02 05:10:14;;;;;;;;;;;;;;;24.73;45.09;94749.66;5035459;28;6944;-58
2022/10/02 05:13:19;;;;;;;;;;;;;;;24.76;45.31;94742.44;5073239;28;7196;-59
2022/10/02 05:16:15;;;;;;;;;;;;;;;24.75;45.66;94736.19;5073543;28;7640;-59
2022/10/02 05:19:19;;;;;;;;;;;;;;;24.71;45.36;94736.41;5058943;28;7028;-58
2022/10/02 05:22:07;;;;;;;;;;;;;;;24.70;45.12;94734.94;5052611;28;7236;-58
2022/10/02 05:25:10;;;;;;;;;;;;;;;24.73;45.34;94740.69;5076854;28;7211;-58
2022/10/02 05:28:14;;;;;;;;;;;;;;;24.71;45.65;94741.16;5056246;28;7209;-58
2022/10/02 05:31:02;;;;;;;;;;;;;;;24.70;45.48;94739.66;5053969;28;7436;-58
2022/10/02 05:33:55;;;;;;;;;;;;;;;24.71;45.45;94746.66;5054965;28;8788;-59
2022/10/02 05:36:40;;;;;;;;;;;;;;;24.71;45.56;94739.16;5050649;28;7262;-58
2022/10/02 05:39:19;;;;;;;;;;;;;;;24.73;45.46;94732.44;5062653;28;9014;-58
2022/10/02 05:42:06;;;;;;;;;;;;;;;24.73;45.78;94739.41;5071168;28;7264;-58
2022/10/02 05:45:03;;;;;;;;;;;;;;;24.74;45.95;94751.19;5073294;28;7119;-58
2022/10/02 05:47:47;;;;;;;;;;;;;;;24.73;45.22;94743.44;4980240;28;8007;-58
2022/10/02 05:50:20;;;;;;;;;;;;;;;24.72;45.15;94750.94;4972063;28;9256;-58
2022/10/02 05:53:07;;;;;;;;;;;;;;;24.73;45.25;94757.19;4980637;28;9283;-58
2022/10/02 05:56:01;;;;;;;;;;;;;;;24.73;45.26;94750.41;4975418;28;7785;-58
2022/10/02 05:58:40;;;;;;;;;;;;;;;24.73;45.80;94755.16;4991041;28;7300;-59
2022/10/02 06:01:11;;;;;;;;;;;;;;;24.73;45.71;94755.94;4978325;28;9499;-58
2022/10/02 06:03:47;;;;;;;;;;;;;;;24.71;45.64;94750.16;5009078;28;9131;-58
2022/10/02 06:06:13;;;;;;;;;;;;;;;24.71;44.99;94746.66;5000432;28;7167;-58
2022/10/02 06:08:57;;;;;;;;;;;;;;;24.73;45.39;94748.94;4966083;28;7480;-59
2022/10/02 06:12:16;;;;;;;;;;;;;;;24.70;46.07;94756.19;4988565;28;7115;-58
2022/10/02 06:14:57;;;;;;;;;;;;;;;24.68;45.53;94753.91;4927335;28;9490;-58
2022/10/02 06:17:46;;;;;;;;;;;;;;;24.68;45.49;94747.66;4955602;28;8896;-58
2022/10/02 06:20:18;;;;;;;;;;;;;;;24.63;46.22;94749.16;4961665;28;9172;-58
2022/10/02 06:23:20;;;;;;;;;;;;;;;24.64;45.49;94755.41;4969149;28;7032;-59
2022/10/02 06:25:58;;;;;;;;;;;;;;;24.67;45.45;94755.16;5022799;28;7393;-58
2022/10/02 06:28:55;;;;;;;;;;;;;;;24.70;45.00;94748.69;5014974;28;7441;-58
2022/10/02 06:31:41;;;;;;;;;;;;;;;24.75;45.42;94751.97;5034413;28;7867;-58
2022/10/02 06:34:17;;;;;;;;;;;;;;;24.80;45.67;94751.97;5034562;28;7080;-59
2022/10/02 06:36:56;;;;;;;;;;;;;;;24.87;45.47;94748.75;5023797;28;7373;-59
2022/10/02 06:40:02;;;;;;;;;;;;;;;24.92;45.26;94742.50;5041514;28;9409;-58
2022/10/02 06:42:46;;;;;;;;;;;;;;;24.98;45.54;94748.75;5020899;28;9001;-59
2022/10/02 06:45:33;;;;;;;;;;;;;;;25.03;46.07;94759.03;5021937;28;7228;-58
2022/10/02 06:48:25;;;;;;;;;;;;;;;25.06;45.77;94760.78;5022549;28;7499;-58
2022/10/02 06:51:12;;;;;;;;;;;;;;;25.11;45.64;94756.53;5048728;28;7148;-59
2022/10/02 06:53:55;;;;;;;;;;;;;;;25.14;45.69;94766.56;5062720;28;7186;-59
2022/10/02 06:56:22;;;;;;;;;;;;;;;25.19;44.97;94768.53;5046340;28;8304;-58
2022/10/02 06:59:17;;;;;;;;;;;;;;;25.23;44.95;94763.53;5071416;28;7243;-58
2022/10/02 07:02:11;;;;;;;;;;;;;;;25.28;44.87;94765.56;5061167;28;8745;-58
2022/10/02 07:05:08;;;;;;;;;;;;;;;25.31;45.55;94767.31;5069971;28;7418;-58
2022/10/02 07:08:13;;;;;;;;;;;;;;;25.35;44.98;94767.81;5039113;28;7547;-58
2022/10/02 07:10:55;;;;;;;;;;;;;;;25.45;44.35;94763.59;5002941;28;7219;-60
2022/10/02 07:13:59;;;;;;;;;;;;;;;25.53;45.08;94770.09;4989276;28;7760;-59
2022/10/02 07:16:51;;;;;;;;;;;;;;;25.62;44.19;94774.63;4999885;28;7244;-58
2022/10/02 07:19:52;;;;;;;;;;;;;;;25.71;43.89;94766.09;5002267;28;7396;-58
2022/10/02 07:22:57;;;;;;;;;;;;;;;25.80;43.77;94765.81;5004069;28;6992;-58
2022/10/02 07:26:16;;;;;;;;;;;;;;;25.87;43.67;94752.28;5004632;28;7265;-58
2022/10/02 07:29:00;;;;;;;;;;;;;;;25.96;43.22;94752.03;4932431;28;8095;-57
2022/10/02 07:32:09;;;;;;;;;;;;;;;26.01;43.04;94754.00;4948541;29;7325;-59
2022/10/02 07:35:12;;;;;;;;;;;;;;;26.09;42.76;94755.03;4945364;28;7367;-58
2022/10/02 07:38:42;;;;;;;;;;;;;;;26.18;43.17;94748.47;4948912;28;8065;-58
2022/10/02 07:41:51;;;;;;;;;;;;;;;26.25;43.25;94733.41;4949940;28;9035;-58
2022/10/02 07:45:24;;;;;;;;;;;;;;;26.29;43.41;94739.41;4949191;28;7216;-58
2022/10/02 07:48:20;;;;;;;;;;;;;;;26.33;43.00;94746.16;4903834;29;7358;-58
2022/10/02 07:54:19;;;;;;;;;;;;;;;26.40;42.62;94755.94;4908998;29;9167;-58
2022/10/02 07:56:57;;;;;;;;;;;;;;;26.44;43.00;94753.66;4909934;29;7264;-58
2022/10/02 07:59:37;;;;;;;;;;;;;;;26.48;42.56;94752.13;4910231;29;7206;-59
2022/10/02 08:02:36;;;;;;;;;;;;;;;26.53;41.94;94759.63;4897258;29;7005;-59
2022/10/02 08:05:51;;;;;;;;;;;;;;;26.54;42.29;94750.09;4841737;29;7647;-59
2022/10/02 08:08:23;;;;;;;;;;;;;;;26.55;42.41;94751.59;4789676;29;7812;-58
2022/10/02 08:15:00;;;;;;;;;;;;;;;26.57;42.03;94751.84;4805094;29;7886;-58
2022/10/02 08:17:43;;;;;;;;;;;;;;;26.58;42.74;94750.56;4805511;29;7863;-58
2022/10/02 08:20:29;;;;;;;;;;;;;;;26.61;41.90;94752.31;4816964;29;7873;-58
2022/10/02 08:23:42;;;;;;;;;;;;;;;26.62;42.72;94739.28;4798282;29;7743;-58
2022/10/02 08:26:26;;;;;;;;;;;;;;;26.63;42.25;94741.53;4810287;29;7359;-60
2022/10/02 08:29:08;;;;;;;;;;;;;;;26.64;42.56;94743.00;4878214;29;7224;-60
2022/10/02 08:31:50;;;;;;;;;;;;;;;26.64;42.40;94740.25;4880410;29;9070;-60
2022/10/02 08:34:22;;;;;;;;;;;;;;;26.64;42.63;94736.75;4888644;29;7275;-60
2022/10/02 08:37:08;;;;;;;;;;;;;;;26.63;42.00;94738.00;4879473;29;7346;-60
2022/10/02 08:39:52;;;;;;;;;;;;;;;26.60;42.33;94739.03;4876817;28;9162;-60
2022/10/02 08:43:07;;;;;;;;;;;;;;;26.58;42.73;94736.00;4980990;28;7371;-60
2022/10/02 08:46:05;;;;;;;;;;;;;;;26.59;42.35;94734.78;4980240;28;7238;-60
2022/10/02 08:49:01;;;;;;;;;;;;;;;26.58;42.07;94745.06;4975955;28;9291;-60
2022/10/02 08:52:05;;;;;;;;;;;;;;;26.57;42.33;94731.78;5059146;28;8963;-60
2022/10/02 08:55:02;;;;;;;;;;;;;;;26.54;42.70;94730.03;5060914;28;9579;-60
2022/10/02 08:57:46;;;;;;;;;;;;;;;26.53;42.18;94736.81;5049704;28;7086;-60
2022/10/02 09:01:02;;;;;;;;;;;;;;;26.48;42.36;94732.81;5053493;28;7386;-60
2022/10/02 09:03:53;;;;;;;;;;;;;;;26.48;42.76;94734.81;5048125;28;6918;-60
2022/10/02 09:06:57;;;;;;;;;;;;;;;26.43;42.93;94744.63;5050584;28;7024;-60
2022/10/02 09:09:45;;;;;;;;;;;;;;;26.41;42.85;94738.88;5050063;28;7185;-60
2022/10/02 09:12:47;;;;;;;;;;;;;;;26.40;42.52;94739.38;5073919;28;7366;-60
2022/10/02 09:15:14;;;;;;;;;;;;;;;26.37;42.88;94729.34;5025285;28;8842;-60
2022/10/02 09:17:47;;;;;;;;;;;;;;;26.36;42.77;94731.34;5013950;28;7575;-60
2022/10/02 09:20:28;;;;;;;;;;;;;;;26.33;42.82;94731.63;5010880;28;7193;-60
2022/10/02 09:23:29;;;;;;;;;;;;;;;26.33;43.57;94737.13;5025559;28;7232;-60
2022/10/02 09:26:20;;;;;;;;;;;;;;;26.32;43.11;94725.34;4967730;28;6970;-60
2022/10/02 09:29:05;;;;;;;;;;;;;;;26.30;43.57;94725.13;4966439;28;7244;-60
2022/10/02 09:32:20;;;;;;;;;;;;;;;26.29;43.59;94717.34;4970513;28;8908;-59
2022/10/02 09:35:32;;;;;;;;;;;;;;;26.29;42.89;94720.88;4942969;28;9084;-60
2022/10/02 09:38:36;;;;;;;;;;;;;;;26.28;43.41;94718.59;4925845;29;7347;-60
2022/10/02 09:41:33;;;;;;;;;;;;;;;26.26;43.53;94715.59;4926870;29;10274;-60
2022/10/02 09:44:37;;;;;;;;;;;;;;;26.25;43.68;94714.88;4934501;28;7326;-60
2022/10/02 09:47:26;;;;;;;;;;;;;;;26.25;43.46;94711.38;4914413;29;9066;-59
2022/10/02 09:50:00;;;;;;;;;;;;;;;26.24;43.30;94707.84;4908230;29;9465;-60
2022/10/02 09:52:55;;;;;;;;;;;;;;;26.26;43.61;94712.84;4929585;28;7105;-60
2022/10/02 09:55:45;;;;;;;;;;;;;;;26.25;43.93;94716.88;4934519;28;9056;-60
2022/10/02 09:58:21;;;;;;;;;;;;;;;26.23;43.25;94706.34;4939911;28;9056;-60
2022/10/02 10:01:01;;;;;;;;;;;;;;;26.24;43.64;94698.81;4938635;28;8142;-60
2022/10/02 10:04:07;;;;;;;;;;;;;;;26.24;43.05;94693.31;4953528;28;7356;-60
2022/10/02 10:07:00;;;;;;;;;;;;;;;26.23;43.51;94702.84;4947504;28;7389;-60
2022/10/02 10:10:03;;;;;;;;;;;;;;;26.23;43.40;94697.34;4968828;28;8998;-60
2022/10/02 10:12:48;;;;;;;;;;;;;;;26.22;43.96;94695.81;4972614;28;9060;-61
2022/10/02 10:15:39;;;;;;;;;;;;;;;26.21;44.11;94697.09;5043063;28;7132;-60
2022/10/02 10:18:35;;;;;;;;;;;;;;;26.19;43.73;94694.81;5064209;28;7216;-60
2022/10/02 10:21:36;;;;;;;;;;;;;;;26.20;44.50;94687.31;5068660;28;6999;-61
2022/10/02 10:24:40;;;;;;;;;;;;;;;26.19;44.86;94692.06;5046539;28;7384;-60
2022/10/02 10:27:12;;;;;;;;;;;;;;;26.16;44.53;94693.81;5070698;28;7015;-60
2022/10/02 10:30:20;;;;;;;;;;;;;;;26.16;44.72;94693.81;5051719;28;8665;-60
2022/10/02 10:33:26;;;;;;;;;;;;;;;26.17;44.34;94695.34;5049636;28;7340;-61
2022/10/02 10:39:40;;;;;;;;;;;;;;;26.14;45.19;94690.81;5068417;28;7268;-61
2022/10/02 10:42:45;;;;;;;;;;;;;;;26.13;44.92;94694.84;5055894;28;9103;-60
2022/10/02 10:45:33;;;;;;;;;;;;;;;26.12;45.20;94684.34;5058289;28;6988;-61
2022/10/02 10:48:20;;;;;;;;;;;;;;;26.13;45.32;94686.59;5063019;28;7219;-61
2022/10/02 10:51:01;;;;;;;;;;;;;;;26.15;44.45;94683.31;5067601;28;10184;-60
2022/10/02 10:53:50;;;;;;;;;;;;;;;26.14;45.26;94681.84;5043495;28;8199;-60
2022/10/02 10:56:48;;;;;;;;;;;;;;;26.13;45.24;94689.34;5067421;28;6966;-60
2022/10/02 10:59:23;;;;;;;;;;;;;;;26.13;44.60;94694.84;5048206;28;8701;-60
2022/10/02 11:02:18;;;;;;;;;;;;;;;26.13;44.83;94689.34;5045525;28;7636;-60
2022/10/02 11:04:57;;;;;;;;;;;;;;;26.12;45.21;94687.84;5038739;28;7391;-60
2022/10/02 11:07:33;;;;;;;;;;;;;;;26.12;44.71;94693.34;5066888;28;7000;-60
2022/10/02 11:10:18;;;;;;;;;;;;;;;26.11;44.45;94685.59;5069563;28;9145;-60
2022/10/02 11:13:02;;;;;;;;;;;;;;;26.11;44.57;94682.84;5063031;28;9219;-60
2022/10/02 11:15:58;;;;;;;;;;;;;;;26.09;45.14;94680.59;5042138;28;9125;-60
2022/10/02 11:18:43;;;;;;;;;;;;;;;26.09;44.82;94683.34;5067415;28;7237;-60
2022/10/02 11:21:41;;;;;;;;;;;;;;;26.07;45.11;94688.59;5049998;28;7554;-61
2022/10/02 11:24:50;;;;;;;;;;;;;;;26.07;44.73;94682.31;5050234;28;7240;-60
2022/10/02 11:27:21;;;;;;;;;;;;;;;26.07;45.48;94687.84;4987617;28;8925;-60
2022/10/02 11:30:33;;;;;;;;;;;;;;;26.07;44.68;94680.31;4990037;28;7352;-60
2022/10/02 11:33:32;;;;;;;;;;;;;;;26.10;44.68;94673.06;4969441;28;7621;-60
2022/10/02 11:36:25;;;;;;;;;;;;;;;26.07;45.36;94685.84;4985382;28;9062;-60
2022/10/02 11:39:06;;;;;;;;;;;;;;;26.05;45.24;94677.31;4933556;28;9049;-60
2022/10/02 11:41:46;;;;;;;;;;;;;;;26.06;45.24;94673.28;4934326;28;9898;-60
2022/10/02 11:44:34;;;;;;;;;;;;;;;26.07;45.03;94674.81;4934599;28;7312;-60
2022/10/02 11:47:21;;;;;;;;;;;;;;;26.07;44.61;94683.06;4920317;29;7228;-60
2022/10/02 11:50:09;;;;;;;;;;;;;;;26.05;45.65;94695.88;4933931;28;7476;-60
2022/10/02 11:53:06;;;;;;;;;;;;;;;26.05;45.20;94691.09;4931503;29;8987;-60
2022/10/02 11:56:11;;;;;;;;;;;;;;;26.06;45.44;94692.59;4933895;28;9800;-60
2022/10/02 12:03:00;;;;;;;;;;;;;;;26.06;45.25;94683.56;4934597;28;7798;-60
2022/10/02 12:06:16;;;;;;;;;;;;;;;26.03;44.73;94677.06;4909821;29;9447;-60
2022/10/02 12:09:06;;;;;;;;;;;;;;;26.03;44.92;94679.09;4856757;29;9650;-60
2022/10/02 12:11:55;;;;;;;;;;;;;;;26.01;45.40;94674.06;4874799;29;7816;-60
2022/10/02 12:14:29;;;;;;;;;;;;;;;26.01;45.25;94671.31;4875478;29;7230;-60
2022/10/02 12:17:36;;;;;;;;;;;;;;;26.00;45.20;94667.06;4925543;29;6931;-60
2022/10/02 12:27:06;;;;;;;;;;;;;;;26.06;44.80;94654.00;4874547;29;7222;-60
2022/10/02 12:30:06;;;;;;;;;;;;;;;26.05;45.61;94646.25;4874715;29;8941;-60
2022/10/02 12:33:31;;;;;;;;;;;;;;;26.03;45.55;94648.75;4869637;29;7270;-60
2022/10/02 12:36:18;;;;;;;;;;;;;;;26.05;45.68;94643.50;4874383;29;7336;-60
2022/10/02 12:39:06;;;;;;;;;;;;;;;26.05;45.17;94635.22;4834242;29;7167;-60
2022/10/02 12:42:02;;;;;;;;;;;;;;;26.04;44.71;94639.22;4872045;29;7233;-60
2022/10/02 12:44:47;;;;;;;;;;;;;;;26.03;44.92;94634.97;4921126;28;9152;-60
2022/10/02 12:47:59;;;;;;;;;;;;;;;26.03;45.73;94635.72;4952180;28;9330;-60
2022/10/02 12:51:04;;;;;;;;;;;;;;;26.01;44.63;94627.19;4948951;28;7179;-60
2022/10/02 12:53:35;;;;;;;;;;;;;;;26.00;44.79;94630.47;4950686;28;7198;-60
2022/10/02 12:56:38;;;;;;;;;;;;;;;26.04;44.83;94626.19;4950842;28;8438;-60
2022/10/02 12:59:17;;;;;;;;;;;;;;;26.05;44.81;94626.94;5072856;28;7352;-60
2022/10/02 13:02:39;;;;;;;;;;;;;;;26.07;45.79;94619.69;5071063;28;9614;-60
2022/10/02 13:05:25;;;;;;;;;;;;;;;26.09;45.80;94619.19;5054868;28;7951;-60
2022/10/02 13:07:54;;;;;;;;;;;;;;;26.09;46.01;94617.19;5064241;28;7162;-60
2022/10/02 13:10:40;;;;;;;;;;;;;;;26.09;45.66;94616.44;5070134;28;7061;-60
2022/10/02 13:13:55;;;;;;;;;;;;;;;26.09;45.33;94611.69;5060103;28;7463;-60
2022/10/02 13:16:51;;;;;;;;;;;;;;;26.08;45.47;94604.66;4989614;28;9116;-60
2022/10/02 13:19:29;;;;;;;;;;;;;;;26.09;45.92;94605.41;4991254;28;7123;-60
2022/10/02 13:22:10;;;;;;;;;;;;;;;26.06;45.68;94596.13;4971793;28;7369;-60
2022/10/02 13:24:46;;;;;;;;;;;;;;;26.05;46.01;94585.59;4964506;28;7000;-60
2022/10/02 13:27:50;;;;;;;;;;;;;;;26.04;46.15;94581.34;4991631;28;7470;-60
2022/10/02 13:30:43;;;;;;;;;;;;;;;26.01;45.79;94583.09;4969800;28;9363;-60
2022/10/02 13:33:48;;;;;;;;;;;;;;;26.01;45.19;94577.59;4970779;28;8898;-60
2022/10/02 13:36:46;;;;;;;;;;;;;;;26.02;45.64;94575.59;4987373;28;7179;-60
2022/10/02 13:39:33;;;;;;;;;;;;;;;26.02;45.55;94570.06;4995338;28;7072;-60
2022/10/02 13:42:33;;;;;;;;;;;;;;;26.03;46.14;94558.53;4997185;28;9370;-60
2022/10/02 13:45:36;;;;;;;;;;;;;;;26.04;45.94;94573.81;4987399;28;7201;-60
2022/10/02 13:48:23;;;;;;;;;;;;;;;26.02;45.27;94570.84;4994981;28;9352;-60
2022/10/02 13:50:59;;;;;;;;;;;;;;;26.01;45.97;94566.56;4973305;28;9386;-60
2022/10/02 13:53:37;;;;;;;;;;;;;;;26.03;45.15;94560.56;5056311;28;7235;-60
2022/10/02 13:56:38;;;;;;;;;;;;;;;26.02;45.32;94564.56;5054542;28;7327;-60
2022/10/02 13:59:14;;;;;;;;;;;;;;;26.02;45.46;94570.06;5078033;28;9609;-60
2022/10/02 14:01:48;;;;;;;;;;;;;;;26.04;45.33;94559.28;5051423;28;8975;-60
2022/10/02 14:04:33;;;;;;;;;;;;;;;26.03;46.03;94558.53;5061503;28;7945;-60
2022/10/02 14:07:29;;;;;;;;;;;;;;;26.06;45.78;94562.28;5070935;28;7011;-60
2022/10/02 14:10:10;;;;;;;;;;;;;;;26.04;45.51;94567.56;5068592;28;9035;-60
2022/10/02 14:12:57;;;;;;;;;;;;;;;26.08;45.64;94576.31;5052059;28;7985;-60
2022/10/02 14:15:52;;;;;;;;;;;;;;;26.07;45.65;94563.78;5064667;28;9014;-60
2022/10/02 14:18:27;;;;;;;;;;;;;;;26.07;45.92;94567.31;5066387;28;7092;-60
2022/10/02 14:21:11;;;;;;;;;;;;;;;26.06;45.46;94565.78;5068676;28;7381;-60
2022/10/02 14:24:08;;;;;;;;;;;;;;;26.05;44.93;94561.56;5063961;28;7287;-60
2022/10/02 14:27:18;;;;;;;;;;;;;;;26.03;45.23;94569.56;5060921;28;7224;-59
2022/10/02 14:30:13;;;;;;;;;;;;;;;26.06;45.64;94576.06;4968180;28;7253;-60
2022/10/02 14:33:22;;;;;;;;;;;;;;;26.07;45.05;94570.06;4987350;28;9103;-60
2022/10/02 14:35:57;;;;;;;;;;;;;;;26.09;45.03;94572.31;4982950;28;7237;-60
2022/10/02 14:39:02;;;;;;;;;;;;;;;26.11;45.28;94575.31;4985584;28;7331;-60
2022/10/02 14:41:30;;;;;;;;;;;;;;;26.08;45.00;94568.81;4971845;28;9384;-59
2022/10/02 14:44:27;;;;;;;;;;;;;;;26.08;45.31;94579.84;4985485;28;9416;-60
2022/10/02 14:47:05;;;;;;;;;;;;;;;26.07;45.59;94575.56;4989724;28;7245;-60
2022/10/02 14:49:33;;;;;;;;;;;;;;;26.08;45.98;94576.31;4974260;28;7197;-60
2022/10/02 14:52:39;;;;;;;;;;;;;;;26.07;45.02;94563.78;4999473;28;7094;-60
2022/10/02 14:55:35;;;;;;;;;;;;;;;26.11;45.20;94564.28;4984821;28;9490;-61
2022/10/02 14:58:29;;;;;;;;;;;;;;;26.20;45.08;94571.50;4971689;28;9080;-61
2022/10/02 15:01:37;;;;;;;;;;;;;;;26.24;44.68;94564.47;5026453;28;7526;-60
2022/10/02 15:04:25;;;;;;;;;;;;;;;26.30;45.37;94569.94;5070029;28;7227;-60
2022/10/02 15:07:12;;;;;;;;;;;;;;;26.31;44.75;94569.44;5069782;28;8663;-60
2022/10/02 15:10:03;;;;;;;;;;;;;;;26.36;44.67;94565.88;5074401;28;6996;-60
2022/10/02 15:13:27;;;;;;;;;;;;;;;26.36;44.66;94562.41;5053376;28;8953;-60
2022/10/02 15:19:13;;;;;;;;;;;;;;;26.33;45.00;94585.47;4976797;28;9222;-60
2022/10/02 15:22:00;;;;;;;;;;;;;;;26.39;45.27;94586.94;4969204;28;7234;-60
2022/10/02 15:24:56;;;;;;;;;;;;;;;26.37;44.67;94591.47;4971334;28;7228;-60